Time;durP1;ratioP1;P1;durP2;ratioP2;P2;SDS_P1;SDS_P2;PMS_P1;PMS_P2;Temp;Humidity;BMP_temperature;BMP_pressure;BME280_temperature;BME280_humidity;BME280_pressure;Samples;Min_cycle;Max_cycle;Signal;HPM_P1;HPM_P2
2022/11/06 00:00:18;;;;;;;9.20;1.45;;;13.60;99.90;;;;;;5078774;28;20046;-77
2022/11/06 00:02:45;;;;;;;11.60;1.90;;;13.60;99.90;;;;;;5060023;28;20059;-78
2022/11/06 00:07:55;;;;;;;7.05;1.80;;;13.60;99.90;;;;;;5080349;28;20275;-77
2022/11/06 00:10:22;;;;;;;9.80;2.03;;;13.60;99.90;;;;;;5078849;28;20051;-77
2022/11/06 00:12:48;;;;;;;9.32;2.05;;;13.60;99.90;;;;;;5079044;28;20031;-78
2022/11/06 00:15:13;;;;;;;4.78;1.50;;;13.60;99.90;;;;;;5078207;28;20032;-77
2022/11/06 00:17:39;;;;;;;10.75;2.00;;;13.70;99.90;;;;;;5064164;28;20365;-75
2022/11/06 00:20:06;;;;;;;17.70;1.90;;;13.60;99.90;;;;;;5079734;28;20517;-77
2022/11/06 00:22:33;;;;;;;14.10;2.47;;;13.70;99.90;;;;;;5061455;28;20016;-78
2022/11/06 00:24:59;;;;;;;8.93;1.77;;;13.70;99.90;;;;;;5061804;28;20127;-78
2022/11/06 00:27:24;;;;;;;11.32;2.25;;;13.60;99.90;;;;;;5060555;28;20117;-77
2022/11/06 00:29:50;;;;;;;10.75;1.48;;;13.70;99.90;;;;;;5075596;28;20081;-77
2022/11/06 00:32:16;;;;;;;14.90;2.05;;;13.70;99.90;;;;;;5085178;28;20034;-78
2022/11/06 00:34:41;;;;;;;11.07;2.03;;;13.70;99.90;;;;;;5080380;28;20036;-78
2022/11/06 00:37:07;;;;;;;7.35;1.83;;;13.70;99.90;;;;;;5078951;28;20062;-77
2022/11/06 00:39:32;;;;;;;12.48;1.65;;;13.70;99.90;;;;;;5076925;28;20465;-77
2022/11/06 00:41:58;;;;;;;8.60;1.70;;;13.70;99.90;;;;;;5058314;28;20016;-77
2022/11/06 00:44:24;;;;;;;7.45;1.90;;;13.70;99.90;;;;;;5079816;28;20020;-79
2022/11/06 00:46:49;;;;;;;12.25;2.33;;;13.70;99.90;;;;;;5062565;28;20440;-75
2022/11/06 00:49:15;;;;;;;10.85;2.15;;;13.70;99.90;;;;;;5075521;28;20067;-78
2022/11/06 00:51:41;;;;;;;16.17;3.08;;;13.70;99.90;;;;;;5062543;28;20024;-78
2022/11/06 00:54:11;;;;;;;21.27;2.83;;;13.70;99.90;;;;;;5079977;28;20047;-78
2022/11/06 00:56:37;;;;;;;10.20;2.60;;;13.70;99.90;;;;;;5052974;28;20432;-79
2022/11/06 00:59:05;;;;;;;10.57;2.72;;;13.70;99.90;;;;;;5061500;28;20071;-77
2022/11/06 01:01:36;;;;;;;13.75;2.90;;;13.70;99.90;;;;;;5060127;28;20078;-78
2022/11/06 01:04:04;;;;;;;13.15;3.13;;;13.70;99.90;;;;;;5074622;28;20059;-78
2022/11/06 01:06:41;;;;;;;12.48;2.33;;;13.70;99.90;;;;;;5062223;28;20031;-78
2022/11/06 01:09:08;;;;;;;9.32;2.05;;;13.70;99.90;;;;;;5058552;28;20028;-77
2022/11/06 01:11:39;;;;;;;8.77;2.38;;;13.70;99.90;;;;;;5061685;28;20173;-76
2022/11/06 01:14:06;;;;;;;11.23;2.25;;;13.70;99.90;;;;;;5064498;28;20032;-76
2022/11/06 01:16:32;;;;;;;12.45;2.33;;;13.70;99.90;;;;;;5060133;28;20035;-77
2022/11/06 01:18:58;;;;;;;15.88;2.30;;;13.70;99.90;;;;;;5054592;28;20028;-77
2022/11/06 01:21:31;;;;;;;12.95;2.63;;;13.70;99.90;;;;;;5078421;28;20028;-79
2022/11/06 01:24:03;;;;;;;12.68;2.65;;;13.70;99.90;;;;;;5077860;28;20394;-77
2022/11/06 01:26:29;;;;;;;12.07;3.33;;;13.70;99.90;;;;;;5076224;28;20463;-79
2022/11/06 01:28:56;;;;;;;11.82;2.20;;;13.70;99.90;;;;;;5062973;28;20100;-78
2022/11/06 01:31:24;;;;;;;12.77;2.30;;;13.80;99.90;;;;;;5062767;28;20051;-77
2022/11/06 01:33:50;;;;;;;16.23;2.53;;;13.70;99.90;;;;;;5080596;28;20047;-77
2022/11/06 01:36:18;;;;;;;12.02;2.83;;;13.70;99.90;;;;;;5081891;28;20028;-79
2022/11/06 01:38:46;;;;;;;15.30;3.15;;;13.70;99.90;;;;;;5060933;28;20116;-77
2022/11/06 01:41:18;;;;;;;17.60;3.10;;;13.70;99.90;;;;;;5080306;28;20490;-77
2022/11/06 01:43:50;;;;;;;16.13;3.10;;;13.80;99.90;;;;;;5081713;28;20028;-78
2022/11/06 01:46:18;;;;;;;14.60;2.75;;;13.80;99.90;;;;;;5076631;28;20413;-79
2022/11/06 01:48:57;;;;;;;16.23;3.40;;;13.80;99.90;;;;;;5063415;28;20028;-76
2022/11/06 01:51:26;;;;;;;15.55;2.50;;;13.80;99.90;;;;;;5073654;28;20023;-77
2022/11/06 01:53:52;;;;;;;11.68;2.42;;;13.80;99.90;;;;;;5078722;28;20023;-78
2022/11/06 01:56:19;;;;;;;11.48;1.77;;;13.80;99.90;;;;;;5075718;28;20526;-77
2022/11/06 01:58:48;;;;;;;11.50;1.90;;;13.80;99.90;;;;;;5078609;28;20082;-78
2022/11/06 02:01:14;;;;;;;14.05;1.95;;;13.80;99.90;;;;;;5063989;28;20036;-78
2022/11/06 02:03:47;;;;;;;7.47;1.80;;;13.80;99.90;;;;;;5064453;28;20359;-77
2022/11/06 02:06:13;;;;;;;5.40;1.60;;;13.80;99.90;;;;;;5082926;28;20423;-78
2022/11/06 02:08:38;;;;;;;8.10;1.67;;;13.80;99.90;;;;;;5058681;28;20028;-79
2022/11/06 02:11:04;;;;;;;11.38;1.60;;;13.80;99.90;;;;;;5063108;28;20039;-78
2022/11/06 02:13:41;;;;;;;14.90;2.22;;;13.80;99.90;;;;;;5081284;28;20024;-77
2022/11/06 02:16:30;;;;;;;12.48;2.10;;;13.80;99.90;;;;;;5074730;28;20052;-77
2022/11/06 02:18:59;;;;;;;12.15;1.95;;;13.80;99.90;;;;;;5060869;28;20041;-79
2022/11/06 02:21:58;;;;;;;10.93;2.05;;;13.80;99.90;;;;;;5079834;28;20032;-78
2022/11/06 02:25:00;;;;;;;16.10;2.30;;;13.80;99.90;;;;;;5062301;28;20024;-79
2022/11/06 02:27:30;;;;;;;13.30;2.30;;;13.80;99.90;;;;;;5022948;28;20038;-80
2022/11/06 02:30:06;;;;;;;10.50;2.00;;;13.80;99.90;;;;;;5056700;28;20036;-76
2022/11/06 02:32:39;;;;;;;15.00;1.98;;;13.80;99.90;;;;;;5063736;28;20024;-77
2022/11/06 02:35:28;;;;;;;15.63;2.10;;;13.80;99.90;;;;;;5062468;28;20063;-77
2022/11/06 02:38:08;;;;;;;9.63;1.67;;;13.80;99.90;;;;;;5077737;28;20100;-80
2022/11/06 02:40:38;;;;;;;12.77;2.25;;;13.80;99.90;;;;;;5060693;28;20119;-78
2022/11/06 02:43:07;;;;;;;9.82;1.67;;;13.80;99.90;;;;;;5072111;28;20826;-78
2022/11/06 02:45:38;;;;;;;10.68;2.08;;;13.80;99.90;;;;;;5081238;28;20433;-78
2022/11/06 02:48:07;;;;;;;9.15;1.80;;;13.80;99.90;;;;;;5060629;28;20868;-76
2022/11/06 02:50:39;;;;;;;16.05;2.22;;;13.80;99.90;;;;;;5067109;28;20038;-77
2022/11/06 02:53:05;;;;;;;;;;;13.80;99.90;;;;;;5069791;28;20087;-78
2022/11/06 02:55:45;;;;;;;19.27;2.25;;;13.90;99.90;;;;;;5052777;28;19919;-79
2022/11/06 02:58:16;;;;;;;19.73;3.35;;;13.90;99.90;;;;;;5051755;28;20028;-79
2022/11/06 03:00:44;;;;;;;;;;;13.80;99.90;;;;;;5060934;28;20510;-78
2022/11/06 03:03:23;;;;;;;16.08;2.70;;;13.80;99.90;;;;;;5075416;28;19924;-79
2022/11/06 03:06:00;;;;;;;11.73;2.30;;;13.80;99.90;;;;;;5067788;28;20036;-78
2022/11/06 03:08:39;;;;;;;14.90;2.38;;;13.90;99.90;;;;;;5080022;28;20031;-76
2022/11/06 03:11:20;;;;;;;15.40;2.20;;;13.90;99.90;;;;;;5080556;28;20173;-76
2022/11/06 03:14:23;;;;;;;11.85;2.03;;;13.90;99.90;;;;;;5080511;28;20132;-78
2022/11/06 03:16:54;;;;;;;14.68;2.00;;;13.90;99.90;;;;;;5052977;28;20043;-79
2022/11/06 03:19:32;;;;;;;9.13;2.40;;;13.90;99.90;;;;;;5075358;28;20392;-79
2022/11/06 03:22:00;;;;;;;7.93;1.85;;;13.90;99.90;;;;;;5056198;28;20196;-77
2022/11/06 03:24:54;;;;;;;14.05;1.83;;;13.90;99.90;;;;;;5080337;28;20451;-76
2022/11/06 03:27:27;;;;;;;10.52;2.33;;;13.90;99.90;;;;;;5075731;28;20422;-79
2022/11/06 03:30:02;;;;;;;10.90;1.95;;;13.90;99.90;;;;;;5078978;28;20074;-79
2022/11/06 03:32:42;;;;;;;11.70;2.08;;;13.90;99.90;;;;;;5081077;28;20052;-79
2022/11/06 03:35:13;;;;;;;6.03;1.60;;;13.90;99.90;;;;;;5072905;28;20028;-78
2022/11/06 03:37:45;;;;;;;5.18;1.40;;;13.90;99.90;;;;;;5073658;28;20028;-77
2022/11/06 03:40:18;;;;;;;11.40;1.83;;;13.90;99.90;;;;;;5070253;28;20494;-78
2022/11/06 03:42:45;;;;;;;12.50;1.50;;;13.90;99.90;;;;;;5075459;28;20032;-79
2022/11/06 03:45:15;;;;;;;7.32;1.52;;;13.90;99.90;;;;;;5071066;28;20067;-79
2022/11/06 03:47:47;;;;;;;12.40;1.35;;;13.90;99.90;;;;;;5078640;28;20024;-78
2022/11/06 03:50:30;;;;;;;8.07;1.50;;;13.90;99.90;;;;;;5053123;28;20086;-80
2022/11/06 03:53:21;;;;;;;5.50;1.20;;;13.90;99.90;;;;;;5080447;28;20119;-81
2022/11/06 03:55:54;;;;;;;4.93;1.50;;;13.90;99.90;;;;;;5078732;28;20029;-81
2022/11/06 03:58:24;;;;;;;9.55;1.50;;;13.90;99.90;;;;;;5058690;28;20096;-78
2022/11/06 04:00:53;;;;;;;6.25;1.20;;;13.90;99.90;;;;;;5075049;28;20113;-78
2022/11/06 04:03:34;;;;;;;7.32;1.48;;;13.90;99.90;;;;;;5058201;28;20117;-77
2022/11/06 04:06:43;;;;;;;13.60;1.67;;;13.90;99.90;;;;;;5055276;28;20081;-78
2022/11/06 04:14:48;;;;;;;20.23;2.80;;;14.00;99.90;;;;;;5073979;28;20364;-76
2022/11/06 04:17:15;;;;;;;20.98;2.80;;;14.00;99.90;;;;;;5085309;28;20405;-78
2022/11/06 04:19:50;;;;;;;19.58;3.33;;;14.00;99.90;;;;;;5055570;28;20147;-77
2022/11/06 04:22:53;;;;;;;21.60;3.20;;;14.00;99.90;;;;;;5054984;28;20439;-78
2022/11/06 04:28:51;;;;;;;26.05;3.20;;;14.00;99.90;;;;;;5076927;28;20084;-79
2022/11/06 04:31:43;;;;;;;20.55;3.67;;;14.00;99.80;;;;;;5064398;28;20360;-79
2022/11/06 04:34:24;;;;;;;20.05;3.22;;;14.00;99.50;;;;;;5057406;28;20298;-77
2022/11/06 04:36:57;;;;;;;28.33;3.30;;;14.00;99.40;;;;;;5075978;28;20037;-78
2022/11/06 04:39:47;;;;;;;22.08;2.75;;;14.00;99.40;;;;;;5077245;28;20040;-80
2022/11/06 04:42:15;;;;;;;21.15;2.92;;;14.00;99.30;;;;;;5056171;28;20115;-76
2022/11/06 04:44:51;;;;;;;16.83;2.70;;;14.00;99.00;;;;;;5078097;28;20035;-78
2022/11/06 04:47:19;;;;;;;18.77;2.30;;;14.00;99.10;;;;;;5072271;28;20029;-78
2022/11/06 04:49:47;;;;;;;13.88;2.30;;;14.00;98.90;;;;;;5076252;28;20089;-78
2022/11/06 04:52:22;;;;;;;16.63;2.22;;;13.90;99.20;;;;;;5078529;28;20028;-77
2022/11/06 04:54:48;;;;;;;14.25;2.53;;;13.90;99.30;;;;;;5065923;28;20576;-78
2022/11/06 04:57:13;;;;;;;24.25;2.75;;;14.00;99.20;;;;;;5059547;28;20036;-79
2022/11/06 04:59:39;;;;;;;21.23;2.85;;;13.90;99.20;;;;;;5082782;28;20046;-78
2022/11/06 05:02:05;;;;;;;20.77;2.70;;;13.90;99.20;;;;;;5064537;28;20024;-79
2022/11/06 05:04:31;;;;;;;14.63;2.75;;;13.90;99.40;;;;;;5064395;28;20071;-78
2022/11/06 05:06:57;;;;;;;17.13;2.58;;;13.90;99.60;;;;;;5082970;28;20047;-77
2022/11/06 05:09:23;;;;;;;13.65;2.45;;;13.90;99.80;;;;;;5060042;28;20490;-78
2022/11/06 05:11:48;;;;;;;21.05;2.50;;;14.00;99.50;;;;;;5060258;28;20095;-76
2022/11/06 05:14:14;;;;;;;20.33;2.42;;;14.00;99.60;;;;;;5074068;28;20031;-76
2022/11/06 05:16:40;;;;;;;20.17;2.25;;;13.90;99.50;;;;;;5063280;28;20435;-77
2022/11/06 05:19:06;;;;;;;17.10;2.90;;;13.90;99.50;;;;;;5060458;28;20502;-77
2022/11/06 05:24:16;;;;;;;17.42;2.55;;;13.90;99.70;;;;;;5072060;28;20505;-75
2022/11/06 05:26:41;;;;;;;23.20;2.67;;;13.90;99.80;;;;;;5054990;28;20032;-76
2022/11/06 05:29:07;;;;;;;28.38;2.70;;;13.90;99.80;;;;;;5084322;28;20028;-75
2022/11/06 05:31:33;;;;;;;19.08;2.60;;;13.90;99.80;;;;;;5082128;28;20027;-75
2022/11/06 05:33:58;;;;;;;18.63;2.85;;;13.90;99.70;;;;;;5081864;28;20487;-76
2022/11/06 05:36:24;;;;;;;28.55;3.05;;;13.90;99.60;;;;;;5064154;28;20028;-77
2022/11/06 05:38:50;;;;;;;18.77;2.63;;;13.80;99.70;;;;;;5081430;28;20036;-76
2022/11/06 05:41:16;;;;;;;17.17;2.65;;;13.80;99.60;;;;;;5064120;28;20101;-77
2022/11/06 05:43:41;;;;;;;20.05;3.03;;;13.80;99.60;;;;;;5081790;28;20513;-77
2022/11/06 05:46:07;;;;;;;27.30;3.50;;;13.80;99.70;;;;;;5060759;28;20032;-76
2022/11/06 05:48:32;;;;;;;30.17;4.05;;;13.90;99.90;;;;;;5080253;28;20059;-76
2022/11/06 05:51:02;;;;;;;27.20;3.47;;;13.90;99.80;;;;;;5078198;28;20949;-76
2022/11/06 05:53:29;;;;;;;26.95;4.18;;;13.80;99.80;;;;;;5078487;28;20107;-77
2022/11/06 05:55:55;;;;;;;20.48;3.88;;;13.80;99.80;;;;;;5056209;28;20025;-77
2022/11/06 05:58:20;;;;;;;27.58;4.15;;;13.80;99.80;;;;;;5063296;28;20034;-78
2022/11/06 06:00:46;;;;;;;28.95;3.83;;;13.80;99.90;;;;;;5063729;28;20254;-76
2022/11/06 06:03:12;;;;;;;20.73;3.72;;;13.80;99.90;;;;;;5054951;28;20044;-77
2022/11/06 06:05:37;;;;;;;19.08;3.38;;;13.90;99.80;;;;;;5049783;28;20051;-76
2022/11/06 06:08:04;;;;;;;31.30;3.45;;;13.90;99.80;;;;;;5060200;28;20039;-79
2022/11/06 06:10:29;;;;;;;28.52;3.75;;;13.80;99.50;;;;;;5061399;28;20024;-76
2022/11/06 06:12:55;;;;;;;20.95;3.72;;;13.90;99.30;;;;;;5072074;28;20570;-75
2022/11/06 06:15:20;;;;;;;17.25;3.30;;;13.90;99.30;;;;;;5060432;28;20024;-80
2022/11/06 06:17:46;;;;;;;20.38;3.33;;;13.90;99.40;;;;;;5057741;28;20059;-77
2022/11/06 06:20:12;;;;;;;21.08;4.07;;;13.90;99.40;;;;;;5054574;28;20044;-78
2022/11/06 06:22:37;;;;;;;25.02;3.60;;;13.90;99.20;;;;;;5058555;28;20029;-78
2022/11/06 06:25:03;;;;;;;17.02;3.33;;;13.90;99.40;;;;;;5053617;28;20035;-76
2022/11/06 06:27:30;;;;;;;23.08;3.20;;;13.90;99.40;;;;;;5059351;28;20140;-77
2022/11/06 06:29:55;;;;;;;24.95;3.13;;;13.90;99.30;;;;;;5055063;28;20439;-75
2022/11/06 06:32:21;;;;;;;15.52;2.70;;;13.90;99.30;;;;;;5062665;28;20034;-77
2022/11/06 06:34:46;;;;;;;24.35;2.97;;;13.90;99.30;;;;;;5059086;28;20050;-78
2022/11/06 06:37:12;;;;;;;26.75;3.00;;;13.80;99.40;;;;;;5061081;28;20071;-78
2022/11/06 06:39:37;;;;;;;25.30;3.22;;;13.70;99.60;;;;;;5053120;28;20044;-77
2022/11/06 06:42:03;;;;;;;18.58;3.40;;;13.80;99.60;;;;;;5059497;28;20107;-76
2022/11/06 06:44:29;;;;;;;23.83;3.83;;;13.70;99.70;;;;;;5053661;28;20125;-77
2022/11/06 06:46:54;;;;;;;20.98;3.03;;;13.80;99.90;;;;;;5055439;28;20032;-77
2022/11/06 06:49:20;;;;;;;21.52;3.10;;;13.80;99.80;;;;;;5059609;28;20091;-77
2022/11/06 06:51:49;;;;;;;23.50;3.28;;;13.80;99.90;;;;;;5053348;28;20031;-77
2022/11/06 06:54:15;;;;;;;20.80;2.72;;;13.80;99.80;;;;;;5058269;28;20040;-78
2022/11/06 06:56:40;;;;;;;18.90;3.05;;;13.80;99.90;;;;;;5058178;28;20510;-77
2022/11/06 06:59:06;;;;;;;27.75;3.35;;;13.90;99.80;;;;;;5056188;28;20305;-78
2022/11/06 07:01:32;;;;;;;25.50;3.58;;;13.90;99.80;;;;;;5064317;28;20062;-77
2022/11/06 07:03:58;;;;;;;21.67;3.20;;;13.90;99.90;;;;;;5055844;28;20072;-77
2022/11/06 07:06:24;;;;;;;23.08;3.00;;;13.90;99.90;;;;;;5039359;28;20505;-78
2022/11/06 07:08:54;;;;;;;29.15;3.47;;;13.80;99.80;;;;;;5044055;28;20029;-79
2022/11/06 07:11:19;;;;;;;20.25;2.92;;;13.90;99.90;;;;;;5041047;28;20064;-78
2022/11/06 07:13:45;;;;;;;26.15;3.20;;;13.90;99.90;;;;;;5038852;28;20182;-78
2022/11/06 07:16:10;;;;;;;25.50;2.80;;;13.80;99.90;;;;;;5042156;28;20500;-78
2022/11/06 07:18:37;;;;;;;16.58;2.95;;;13.80;99.90;;;;;;5041096;28;20148;-79
2022/11/06 07:21:05;;;;;;;27.63;2.60;;;13.80;99.90;;;;;;5039372;28;20515;-79
2022/11/06 07:23:30;;;;;;;22.02;2.80;;;13.90;99.90;;;;;;5034196;28;20029;-77
2022/11/06 07:25:56;;;;;;;21.75;2.65;;;13.90;99.90;;;;;;5041498;28;20127;-78
2022/11/06 07:28:21;;;;;;;27.35;3.20;;;13.80;99.90;;;;;;5048731;28;20498;-78
2022/11/06 07:30:47;;;;;;;21.55;2.80;;;13.80;99.90;;;;;;5046524;28;20235;-79
2022/11/06 07:33:13;;;;;;;21.38;3.00;;;13.80;99.90;;;;;;5035819;28;20459;-78
2022/11/06 07:35:38;;;;;;;19.85;3.20;;;13.80;99.90;;;;;;5040472;28;20123;-78
2022/11/06 07:38:05;;;;;;;28.63;3.15;;;13.90;99.90;;;;;;5037337;28;20131;-80
2022/11/06 07:40:35;;;;;;;27.80;3.05;;;13.90;99.90;;;;;;5041608;28;20170;-77
2022/11/06 07:43:09;;;;;;;26.90;2.97;;;13.90;99.90;;;;;;5045924;28;20056;-79
2022/11/06 07:45:35;;;;;;;21.90;2.50;;;13.80;99.80;;;;;;5038432;28;20209;-79
2022/11/06 07:48:02;;;;;;;20.30;3.00;;;13.80;99.80;;;;;;5049283;28;20038;-79
2022/11/06 07:50:28;;;;;;;21.17;2.75;;;13.80;99.80;;;;;;5037679;28;20112;-78
2022/11/06 07:52:54;;;;;;;20.88;2.38;;;13.90;99.80;;;;;;5035036;28;20070;-77
2022/11/06 07:55:20;;;;;;;18.40;3.00;;;13.80;99.60;;;;;;5044189;28;20131;-76
2022/11/06 07:57:45;;;;;;;26.77;2.60;;;13.90;99.50;;;;;;5033772;28;20036;-79
2022/11/06 08:00:12;;;;;;;11.80;2.13;;;13.90;99.50;;;;;;5031297;28;20041;-78
2022/11/06 08:02:38;;;;;;;16.00;2.28;;;13.90;99.60;;;;;;5044941;28;20261;-75
2022/11/06 08:05:04;;;;;;;21.77;2.33;;;13.90;99.20;;;;;;5077626;28;20143;-78
2022/11/06 08:07:29;;;;;;;18.20;2.67;;;13.90;99.60;;;;;;5077966;28;20528;-78
2022/11/06 08:09:55;;;;;;;20.77;2.40;;;13.90;99.50;;;;;;5071632;28;20107;-76
2022/11/06 08:12:21;;;;;;;17.67;2.15;;;13.90;99.40;;;;;;5075499;28;20364;-79
2022/11/06 08:14:46;;;;;;;14.52;2.17;;;14.00;99.40;;;;;;5045621;28;20055;-80
2022/11/06 08:17:12;;;;;;;14.90;2.15;;;14.00;99.40;;;;;;5067289;28;20039;-79
2022/11/06 08:19:37;;;;;;;22.52;2.10;;;14.00;99.30;;;;;;5060167;28;20036;-78
2022/11/06 08:22:03;;;;;;;15.18;2.28;;;13.90;99.30;;;;;;5077525;28;20069;-78
2022/11/06 08:24:29;;;;;;;20.65;2.50;;;13.90;99.30;;;;;;5056422;28;20199;-77
2022/11/06 08:26:54;;;;;;;12.70;1.95;;;14.00;99.30;;;;;;5070785;28;20036;-78
2022/11/06 08:29:20;;;;;;;20.33;3.03;;;13.90;99.30;;;;;;5081688;28;20283;-78
2022/11/06 08:31:45;;;;;;;20.98;2.42;;;13.90;99.40;;;;;;5057656;28;20088;-78
2022/11/06 08:34:11;;;;;;;14.93;2.28;;;14.00;99.10;;;;;;5049839;28;20447;-78
2022/11/06 08:36:41;;;;;;;14.93;2.20;;;14.00;98.70;;;;;;5059093;28;20111;-78
2022/11/06 08:39:07;;;;;;;18.42;2.25;;;14.00;98.80;;;;;;5056218;28;20174;-78
2022/11/06 08:41:33;;;;;;;20.20;2.83;;;14.00;98.90;;;;;;5058804;28;20279;-80
2022/11/06 08:43:58;;;;;;;25.70;3.00;;;14.00;98.90;;;;;;5055928;28;20059;-78
2022/11/06 08:46:24;;;;;;;20.85;3.17;;;14.00;99.20;;;;;;5057976;28;20343;-79
2022/11/06 08:48:50;;;;;;;14.18;2.42;;;13.90;99.30;;;;;;5072784;28;20173;-80
2022/11/06 08:51:15;;;;;;;15.38;2.72;;;13.90;99.40;;;;;;5068637;28;20089;-80
2022/11/06 08:53:41;;;;;;;15.10;2.17;;;13.90;99.40;;;;;;5056544;28;20030;-79
2022/11/06 08:56:07;;;;;;;11.07;2.22;;;14.00;99.20;;;;;;5072790;28;20430;-79
2022/11/06 08:58:32;;;;;;;19.85;2.65;;;14.00;99.00;;;;;;5053756;28;20330;-79
2022/11/06 09:00:58;;;;;;;13.93;2.10;;;14.00;99.00;;;;;;5075932;28;20047;-79
2022/11/06 09:03:24;;;;;;;9.55;1.85;;;14.00;98.80;;;;;;5060225;28;20105;-77
2022/11/06 09:05:49;;;;;;;15.77;2.13;;;14.00;98.90;;;;;;5058215;28;20027;-76
2022/11/06 09:08:15;;;;;;;10.90;1.75;;;14.00;98.80;;;;;;5079216;28;20059;-79
2022/11/06 09:10:42;;;;;;;18.02;2.00;;;13.90;99.10;;;;;;5057453;28;20529;-78
2022/11/06 09:13:08;;;;;;;9.73;1.95;;;13.90;99.20;;;;;;5074452;28;20384;-77
2022/11/06 09:15:34;;;;;;;5.68;2.08;;;13.90;98.90;;;;;;5075032;28;20081;-76
2022/11/06 09:18:00;;;;;;;19.02;2.40;;;13.90;99.10;;;;;;5061042;28;20039;-79
2022/11/06 09:20:26;;;;;;;17.50;2.67;;;13.90;99.30;;;;;;5074953;28;20036;-77
2022/11/06 09:22:52;;;;;;;13.73;1.98;;;13.90;99.40;;;;;;5074499;28;20551;-77
2022/11/06 09:25:18;;;;;;;12.70;1.80;;;13.90;99.30;;;;;;5059512;28;20040;-78
2022/11/06 09:27:52;;;;;;;11.23;1.58;;;13.90;99.30;;;;;;5055919;28;20263;-78
2022/11/06 09:30:20;;;;;;;19.95;2.10;;;13.90;99.40;;;;;;5077503;28;20161;-77
2022/11/06 09:32:53;;;;;;;10.10;1.30;;;13.90;99.60;;;;;;5079727;28;20036;-77
2022/11/06 09:35:20;;;;;;;13.68;1.65;;;13.80;99.50;;;;;;5083208;28;20174;-76
2022/11/06 09:37:46;;;;;;;9.40;1.45;;;13.80;99.50;;;;;;5061040;28;20032;-81
2022/11/06 09:40:18;;;;;;;14.00;1.40;;;13.80;99.60;;;;;;5077085;28;20047;-81
2022/11/06 09:42:55;;;;;;;8.73;1.60;;;13.80;99.40;;;;;;5062661;28;20514;-80
2022/11/06 09:45:24;;;;;;;6.55;1.05;;;13.80;99.60;;;;;;5067281;28;20399;-80
2022/11/06 09:48:00;;;;;;;10.60;1.38;;;13.70;99.50;;;;;;5064222;28;20052;-78
2022/11/06 09:50:32;;;;;;;9.85;1.15;;;13.70;99.70;;;;;;5074900;28;20127;-79
2022/11/06 09:53:09;;;;;;;11.02;1.50;;;13.70;99.60;;;;;;5075341;28;20059;-82
2022/11/06 09:55:41;;;;;;;7.32;0.75;;;13.60;99.40;;;;;;5077261;28;20108;-81
2022/11/06 09:58:12;;;;;;;4.45;0.70;;;13.60;99.60;;;;;;5080612;28;20192;-78
2022/11/06 10:00:38;;;;;;;;;;;13.60;99.20;;;;;;5059135;28;20047;-77
2022/11/06 10:03:18;;;;;;;8.57;1.00;;;13.50;98.80;;;;;;5081189;28;19915;-77
2022/11/06 10:05:46;;;;;;;9.95;0.80;;;13.40;98.20;;;;;;5083772;28;20036;-76
2022/11/06 10:08:22;;;;;;;8.00;1.00;;;13.40;98.00;;;;;;5060731;28;20039;-77
2022/11/06 10:11:00;;;;;;;8.27;0.88;;;13.30;97.80;;;;;;5074541;28;20556;-77
2022/11/06 10:13:41;;;;;;;7.63;0.98;;;13.20;97.90;;;;;;5080059;28;20031;-77
2022/11/06 10:16:09;;;;;;;9.47;1.17;;;13.10;97.40;;;;;;5077853;28;20035;-77
2022/11/06 10:19:06;;;;;;;8.45;1.17;;;13.00;97.80;;;;;;5073840;28;20280;-79
2022/11/06 10:21:53;;;;;;;8.95;1.00;;;13.00;97.30;;;;;;5071291;28;20090;-79
2022/11/06 10:24:35;;;;;;;13.48;3.60;;;12.90;97.70;;;;;;5061373;28;20047;-79
2022/11/06 10:27:03;;;;;;;7.60;0.80;;;12.90;97.50;;;;;;5076049;28;20375;-78
2022/11/06 10:29:56;;;;;;;8.65;0.77;;;12.90;97.90;;;;;;5054164;28;20024;-78
2022/11/06 10:32:25;;;;;;;10.60;1.23;;;12.90;97.90;;;;;;5072222;28;20390;-79
2022/11/06 10:35:07;;;;;;;12.45;1.80;;;12.90;98.20;;;;;;5064268;28;20119;-78
2022/11/06 10:37:45;;;;;;;8.35;1.10;;;12.90;98.40;;;;;;5072075;28;20570;-77
2022/11/06 10:40:18;;;;;;;13.50;1.80;;;13.00;98.60;;;;;;5082776;28;20047;-78
2022/11/06 10:42:48;;;;;;;9.65;1.20;;;13.10;98.60;;;;;;5079917;28;20490;-78
2022/11/06 10:45:16;;;;;;;12.50;1.20;;;13.10;98.70;;;;;;5083265;28;20035;-78
2022/11/06 10:47:48;;;;;;;9.05;1.30;;;13.10;98.60;;;;;;5083052;28;20095;-78
2022/11/06 10:50:16;;;;;;;11.65;1.48;;;13.20;98.70;;;;;;5064310;28;20028;-77
2022/11/06 10:53:02;;;;;;;9.23;1.30;;;13.20;98.60;;;;;;5078107;28;20375;-77
2022/11/06 10:56:01;;;;;;;11.85;1.42;;;13.20;98.50;;;;;;5078640;28;20036;-77
2022/11/06 10:58:31;;;;;;;12.27;2.17;;;13.30;98.60;;;;;;5082845;28;20481;-78
2022/11/06 11:01:00;;;;;;;7.63;1.27;;;13.30;98.60;;;;;;5081649;28;20044;-77
2022/11/06 11:03:30;;;;;;;11.80;1.33;;;13.40;98.70;;;;;;5080793;28;20052;-77
2022/11/06 11:05:55;;;;;;;12.30;1.30;;;13.40;98.60;;;;;;5081084;28;20032;-78
2022/11/06 11:08:44;;;;;;;9.35;0.98;;;13.40;98.60;;;;;;5067129;28;20344;-77
2022/11/06 11:11:13;;;;;;;9.75;1.00;;;13.40;98.60;;;;;;5086886;28;20024;-77
2022/11/06 11:13:42;;;;;;;8.30;1.20;;;13.40;98.30;;;;;;5058339;28;20107;-77
2022/11/06 11:16:21;;;;;;;7.57;1.55;;;13.50;98.00;;;;;;5083690;28;20466;-78
2022/11/06 11:18:48;;;;;;;9.85;1.30;;;13.50;97.40;;;;;;5074169;28;20037;-78
2022/11/06 11:21:19;;;;;;;9.70;1.40;;;13.40;98.20;;;;;;5077145;28;20115;-78
2022/11/06 11:24:06;;;;;;;10.25;1.40;;;13.40;97.60;;;;;;5074734;28;20024;-78
2022/11/06 11:26:36;;;;;;;11.63;1.40;;;13.50;97.40;;;;;;5055959;28;20032;-78
2022/11/06 11:29:21;;;;;;;10.15;1.35;;;13.60;97.80;;;;;;5071075;28;20136;-77
2022/11/06 11:31:51;;;;;;;12.20;1.25;;;13.60;96.80;;;;;;5081959;28;20508;-78
2022/11/06 11:34:24;;;;;;;11.68;1.60;;;13.60;97.50;;;;;;5061670;28;20521;-76
2022/11/06 11:37:15;;;;;;;9.32;1.70;;;13.60;96.60;;;;;;5065042;28;20036;-77
2022/11/06 11:39:44;;;;;;;11.82;1.38;;;13.40;96.50;;;;;;5063994;28;20045;-77
2022/11/06 11:42:27;;;;;;;12.68;1.63;;;13.40;96.70;;;;;;5084296;28;20032;-78
2022/11/06 11:45:08;;;;;;;11.27;1.35;;;13.40;97.40;;;;;;5063067;28;20031;-77
2022/11/06 11:47:35;;;;;;;18.80;2.00;;;13.40;97.00;;;;;;5069388;28;20017;-78
2022/11/06 11:50:25;;;;;;;20.13;2.03;;;13.40;97.10;;;;;;5092718;28;20494;-78
2022/11/06 11:53:10;;;;;;;15.80;1.58;;;13.30;96.70;;;;;;5060853;28;20365;-76
2022/11/06 11:55:48;;;;;;;13.35;1.55;;;13.30;97.10;;;;;;5064023;28;20118;-77
2022/11/06 11:58:18;;;;;;;17.45;1.40;;;13.20;96.70;;;;;;5063364;28;20493;-76
2022/11/06 12:00:52;;;;;;;14.48;1.55;;;13.30;96.60;;;;;;5081533;28;20119;-76
2022/11/06 12:03:19;;;;;;;13.77;1.83;;;13.30;96.50;;;;;;5077030;28;20389;-76
2022/11/06 12:05:45;;;;;;;13.73;1.83;;;13.30;96.50;;;;;;5073168;28;20503;-78
2022/11/06 12:08:25;;;;;;;14.55;1.60;;;13.30;96.40;;;;;;5062532;28;20231;-78
2022/11/06 12:10:51;;;;;;;14.32;1.77;;;13.30;96.20;;;;;;5081758;28;20462;-76
2022/11/06 12:13:21;;;;;;;14.27;1.58;;;13.20;95.80;;;;;;5062388;28;20127;-76
2022/11/06 12:15:50;;;;;;;18.23;1.80;;;13.30;97.30;;;;;;5063546;28;20113;-76
2022/11/06 12:18:20;;;;;;;12.18;1.58;;;13.30;96.90;;;;;;5063210;28;20129;-75
2022/11/06 12:21:10;;;;;;;12.30;1.65;;;13.40;97.20;;;;;;5075890;28;20278;-76
2022/11/06 12:23:47;;;;;;;19.20;1.88;;;13.40;96.70;;;;;;5077395;28;20111;-76
2022/11/06 12:26:28;;;;;;;15.10;2.08;;;13.40;97.00;;;;;;5067655;28;20175;-77
2022/11/06 12:29:00;;;;;;;10.90;1.58;;;13.50;96.80;;;;;;5077561;28;20032;-77
2022/11/06 12:31:40;;;;;;;12.88;1.48;;;13.50;96.80;;;;;;5080197;28;20223;-76
2022/11/06 12:34:27;;;;;;;10.13;1.23;;;13.60;97.00;;;;;;5081813;28;20290;-76
2022/11/06 12:37:16;;;;;;;11.73;1.73;;;13.70;96.50;;;;;;5056037;28;20387;-76
2022/11/06 12:39:50;;;;;;;11.05;1.33;;;13.80;95.60;;;;;;5079798;28;20125;-77
2022/11/06 12:42:17;;;;;;;10.00;1.27;;;13.90;95.70;;;;;;5078265;28;20066;-76
2022/11/06 12:44:46;;;;;;;10.38;1.10;;;14.00;95.30;;;;;;5079438;28;20048;-76
2022/11/06 12:47:30;;;;;;;9.65;1.30;;;14.00;94.50;;;;;;5055378;28;20159;-78
2022/11/06 12:50:41;;;;;;;10.85;1.50;;;14.00;93.50;;;;;;5071416;28;20421;-77
2022/11/06 12:53:38;;;;;;;19.70;4.00;;;14.10;94.60;;;;;;4970051;28;20030;-76
2022/11/06 12:56:14;;;;;;;16.15;5.63;;;14.00;94.90;;;;;;4969083;28;20378;-76
2022/11/06 12:59:04;;;;;;;17.52;7.13;;;14.00;95.00;;;;;;5049153;28;20036;-76
2022/11/06 13:01:39;;;;;;;23.20;4.10;;;14.10;95.60;;;;;;5076425;28;20127;-78
2022/11/06 13:04:32;;;;;;;32.58;14.50;;;14.30;94.90;;;;;;5047283;28;20084;-77
2022/11/06 13:07:18;;;;;;;17.60;2.42;;;14.50;94.60;;;;;;5075494;28;20066;-78
2022/11/06 13:10:00;;;;;;;13.40;2.00;;;14.50;94.10;;;;;;5070974;28;20055;-76
2022/11/06 13:12:35;;;;;;;11.93;1.98;;;14.40;93.90;;;;;;5073046;28;20044;-76
2022/11/06 13:15:24;;;;;;;17.48;3.65;;;14.30;94.10;;;;;;5082182;28;20039;-79